createdAt,value
2022-12-27T00:01:08.692Z,2.8
2022-12-27T00:03:11.779Z,1.2
2022-12-27T00:07:44.599Z,1.4
2022-12-27T00:09:47.611Z,1.5
2022-12-27T00:11:54.832Z,2.6
2022-12-27T00:13:56.870Z,1.3
2022-12-27T00:15:59.921Z,0.9
2022-12-27T00:18:02.887Z,1.1
2022-12-27T00:20:11.462Z,1
2022-12-27T00:22:08.945Z,1.3
2022-12-27T00:24:11.959Z,3.5
2022-12-27T00:26:14.993Z,2.3
2022-12-27T00:28:21.189Z,1.6
2022-12-27T00:30:24.204Z,1.3
2022-12-27T00:32:27.227Z,1.3
2022-12-27T00:34:30.229Z,1.1
2022-12-27T00:36:33.242Z,1.7
2022-12-27T00:38:36.246Z,1.2
2022-12-27T00:40:39.258Z,1.3
2022-12-27T00:44:48.502Z,1.4
2022-12-27T00:46:51.535Z,1.2
2022-12-27T00:48:54.528Z,1.4
2022-12-27T00:50:57.553Z,1.7
2022-12-27T00:53:00.600Z,1.3
2022-12-27T01:02:18.994Z,2.6
2022-12-27T01:04:22.022Z,0.9
2022-12-27T01:06:25.019Z,1.5
2022-12-27T01:08:28.023Z,2.6
2022-12-27T01:10:34.271Z,3.4
2022-12-27T01:12:37.277Z,0.8
2022-12-27T01:14:40.296Z,1.1
2022-12-27T01:16:43.354Z,1.2
2022-12-27T01:18:46.329Z,2.6
2022-12-27T01:20:49.363Z,1.8
2022-12-27T01:22:52.353Z,1.2
2022-12-27T01:24:58.615Z,1.9
2022-12-27T01:31:07.648Z,1.4
2022-12-27T01:33:10.681Z,2.5
2022-12-27T01:35:13.705Z,3.9
2022-12-27T01:37:16.716Z,2.5
2022-12-27T01:39:22.935Z,1.8
2022-12-27T01:41:25.952Z,2.8
2022-12-27T01:43:28.999Z,2.3
2022-12-27T01:45:33.697Z,2.9
2022-12-27T01:47:36.709Z,1.6
2022-12-27T01:49:39.609Z,1.8
2022-12-27T01:51:42.616Z,3
2022-12-27T01:53:48.880Z,2.4
2022-12-27T01:55:51.896Z,2.5
2022-12-27T01:57:54.945Z,2.5
2022-12-27T01:58:58.042Z,1.7
2022-12-27T02:07:13.391Z,0.8
2022-12-27T02:11:19.411Z,0.5
2022-12-27T02:17:28.512Z,0.4
2022-12-27T02:19:31.524Z,1
2022-12-27T02:21:37.780Z,1.3
2022-12-27T02:23:40.829Z,0.8
2022-12-27T02:25:43.864Z,1.4
2022-12-27T02:27:46.904Z,1.5
2022-12-27T02:29:49.920Z,0.5
2022-12-27T02:31:52.947Z,1.9
2022-12-27T02:33:55.976Z,1.8
2022-12-27T02:36:02.257Z,2.4
2022-12-27T02:38:05.257Z,3
2022-12-27T02:40:08.288Z,1.3
2022-12-27T02:42:11.323Z,1.6
2022-12-27T02:44:14.348Z,2.8
2022-12-27T02:46:21.320Z,1.5
2022-12-27T02:48:20.427Z,1.7
2022-12-27T02:50:26.660Z,2.1
2022-12-27T02:52:29.688Z,2.3
2022-12-27T02:54:32.721Z,1.6
2022-12-27T02:55:35.867Z,1.4
2022-12-27T02:57:38.875Z,2.2
2022-12-27T02:59:41.903Z,1.2
2022-12-27T03:01:45.018Z,2.3
2022-12-27T03:03:51.178Z,1.2
2022-12-27T03:05:54.226Z,1.9
2022-12-27T03:07:57.258Z,2.4
2022-12-27T03:10:00.285Z,0.3
2022-12-27T03:12:03.294Z,4
2022-12-27T03:14:06.329Z,1.3
2022-12-27T03:16:09.482Z,1.1
2022-12-27T03:18:15.615Z,1.5
2022-12-27T03:20:18.621Z,2.4
2022-12-27T03:24:24.682Z,1.6
2022-12-27T03:26:27.693Z,1.6
2022-12-27T03:28:30.726Z,2.1
2022-12-27T03:30:33.763Z,2.4
2022-12-27T03:32:39.987Z,1.6
2022-12-27T03:34:43.008Z,1.3
2022-12-27T03:36:46.035Z,2.3
2022-12-27T03:38:49.072Z,2.2
2022-12-27T03:40:52.085Z,2.8
2022-12-27T03:42:55.118Z,1.6
2022-12-27T03:44:58.135Z,1.1
2022-12-27T03:47:04.376Z,1.1
2022-12-27T03:49:07.387Z,1.6
2022-12-27T03:51:10.452Z,1.9
2022-12-27T03:53:32.437Z,1.3
2022-12-27T03:55:35.520Z,2.2
2022-12-27T03:57:38.484Z,1.4
2022-12-27T03:59:44.700Z,2.5
2022-12-27T04:01:47.843Z,2
2022-12-27T04:03:50.741Z,1.5
2022-12-27T04:05:53.786Z,6.2
2022-12-27T04:07:56.802Z,1.4
2022-12-27T04:09:59.821Z,3.1
2022-12-27T04:12:02.812Z,2.7
2022-12-27T04:14:09.024Z,1.9
2022-12-27T04:16:12.128Z,1.2
2022-12-27T04:18:15.127Z,1.7
2022-12-27T04:20:18.111Z,2.9
2022-12-27T04:22:21.147Z,2
2022-12-27T04:24:24.124Z,3.8
2022-12-27T04:28:33.393Z,3
2022-12-27T04:30:36.418Z,1.8
2022-12-27T04:32:39.428Z,3.3
2022-12-27T04:42:57.811Z,3
2022-12-27T04:45:00.867Z,3.4
2022-12-27T04:47:03.873Z,1.5
2022-12-27T04:48:06.972Z,2.6
2022-12-27T04:50:10.014Z,2.4
2022-12-27T04:52:13.005Z,3.1
2022-12-27T04:56:22.250Z,2.1
2022-12-27T04:58:25.266Z,2.2
2022-12-27T05:00:28.280Z,1.9
2022-12-27T05:02:31.352Z,2.7
2022-12-27T05:04:34.324Z,2.9
2022-12-27T05:06:37.323Z,2.2
2022-12-27T05:08:40.373Z,2.7
2022-12-27T05:10:46.592Z,2.7
2022-12-27T05:12:49.588Z,3.6
2022-12-27T05:14:52.597Z,2.8
2022-12-27T05:16:55.620Z,2.6
2022-12-27T05:18:58.639Z,1.3
2022-12-27T05:23:04.662Z,3.1
2022-12-27T05:25:10.900Z,1.4
2022-12-27T05:29:16.902Z,4.2
2022-12-27T05:31:19.958Z,3.3
2022-12-27T05:33:22.934Z,3.9
2022-12-27T05:35:25.948Z,4.2
2022-12-27T05:37:28.966Z,3.4
2022-12-27T05:39:35.192Z,4.6
2022-12-27T05:41:38.169Z,2.7
2022-12-27T05:43:41.196Z,3.3
2022-12-27T05:46:47.355Z,4.1
2022-12-27T05:48:50.334Z,3.3
2022-12-27T05:50:53.341Z,3.7
2022-12-27T05:52:59.542Z,4.1
2022-12-27T05:55:02.575Z,4.3
2022-12-27T05:57:05.590Z,2.9
2022-12-27T05:59:08.582Z,3.4
2022-12-27T06:01:11.751Z,2.3
2022-12-27T06:03:14.663Z,2.6
2022-12-27T06:05:17.628Z,4.5
2022-12-27T06:07:23.847Z,4.5
2022-12-27T06:09:26.840Z,4.2
2022-12-27T06:11:29.844Z,3.9
2022-12-27T06:13:32.857Z,5
2022-12-27T06:15:35.890Z,3.9
2022-12-27T06:17:38.906Z,5.2
2022-12-27T06:19:41.897Z,3.5
2022-12-27T06:21:48.130Z,4.4
2022-12-27T06:23:51.138Z,5
2022-12-27T06:25:54.154Z,3.9
2022-12-27T06:27:57.178Z,3.6
2022-12-27T06:30:00.174Z,4.1
2022-12-27T06:32:03.237Z,3.9
2022-12-27T06:34:06.192Z,3.7
2022-12-27T06:36:12.420Z,4.3
2022-12-27T06:40:18.461Z,4.5
2022-12-27T06:41:21.541Z,4.6
2022-12-27T06:43:24.555Z,3
2022-12-27T06:45:27.668Z,3.6
2022-12-27T06:47:30.583Z,3.9
2022-12-27T06:57:48.906Z,4.1
2022-12-27T06:59:54.186Z,4.8
2022-12-27T07:01:55.098Z,3.3
2022-12-27T07:04:01.166Z,4.8
2022-12-27T07:06:04.159Z,3.5
2022-12-27T07:08:07.126Z,3.9
2022-12-27T07:10:10.161Z,3.5
2022-12-27T07:12:13.180Z,5.3
2022-12-27T07:14:16.161Z,4
2022-12-27T07:16:19.242Z,4.9
2022-12-27T07:20:28.451Z,4.8
2022-12-27T07:26:37.470Z,5.8
2022-12-27T07:28:40.496Z,4.6
2022-12-27T07:30:43.483Z,5.8
2022-12-27T07:32:49.717Z,4.7
2022-12-27T07:34:52.730Z,6.7
2022-12-27T07:39:21.420Z,5.7
2022-12-27T07:41:24.384Z,5.3
2022-12-27T07:43:27.430Z,4.7
2022-12-27T07:45:33.693Z,6.1
2022-12-27T07:47:36.630Z,5.7
2022-12-27T07:49:39.655Z,5.7
2022-12-27T07:51:42.669Z,4.6
2022-12-27T07:53:45.648Z,6.2
2022-12-27T07:55:48.665Z,5
2022-12-27T07:57:51.676Z,5.5
2022-12-27T07:59:57.871Z,5
2022-12-27T08:02:01.033Z,6.4
2022-12-27T08:04:03.880Z,5.5
2022-12-27T08:06:06.887Z,5.6
2022-12-27T08:14:22.069Z,7.4
2022-12-27T08:18:28.053Z,7.4
2022-12-27T08:20:31.021Z,6.8
2022-12-27T08:22:34.039Z,5.8
2022-12-27T08:24:37.033Z,3.8
2022-12-27T08:26:40.040Z,5.4
2022-12-27T08:28:46.195Z,4.9
2022-12-27T08:30:49.250Z,7
2022-12-27T08:32:52.201Z,6.1
2022-12-27T08:35:58.290Z,5.8
2022-12-27T08:38:01.305Z,7.2
2022-12-27T08:40:04.287Z,5.9
2022-12-27T08:42:10.525Z,5.5
2022-12-27T08:44:13.517Z,7.3
2022-12-27T08:46:16.607Z,5.4
2022-12-27T08:48:19.668Z,5.6
2022-12-27T08:50:22.522Z,5
2022-12-27T08:52:25.555Z,5.1
2022-12-27T08:54:28.542Z,6.5
2022-12-27T08:56:34.771Z,7
2022-12-27T08:58:37.794Z,5.1
2022-12-27T09:00:40.713Z,6
2022-12-27T09:08:52.847Z,4.9
2022-12-27T09:13:02.029Z,3.8
2022-12-27T09:17:08.057Z,4.6
2022-12-27T09:19:11.085Z,5.9
2022-12-27T09:21:14.129Z,4.1
2022-12-27T09:23:17.138Z,5.9
2022-12-27T09:25:23.425Z,2
2022-12-27T09:27:26.407Z,4.9
2022-12-27T09:29:29.431Z,3.9
2022-12-27T09:32:35.962Z,3.4
2022-12-27T09:36:41.990Z,2.3
2022-12-27T09:38:48.292Z,3
2022-12-27T09:40:51.318Z,3.7
2022-12-27T09:43:09.433Z,3.7
2022-12-27T09:44:57.375Z,3.8
2022-12-27T09:47:00.422Z,3.1
2022-12-27T09:49:03.486Z,3.8
2022-12-27T09:51:06.514Z,4.5
2022-12-27T09:53:12.759Z,3.3
2022-12-27T09:55:15.790Z,2.7
2022-12-27T09:57:20.239Z,4.8
2022-12-27T09:59:21.924Z,2.9
2022-12-27T10:01:25.064Z,3.1
2022-12-27T10:03:28.041Z,4.7
2022-12-27T10:05:31.063Z,5.3
2022-12-27T10:07:37.309Z,4
2022-12-27T10:09:40.346Z,3.1
2022-12-27T10:11:43.421Z,4.3
2022-12-27T10:13:46.436Z,3.5
2022-12-27T10:15:49.670Z,3.7
2022-12-27T10:22:01.964Z,4.2
2022-12-27T10:24:04.998Z,5.2
2022-12-27T10:26:08.072Z,5.2
2022-12-27T10:27:11.172Z,5.1
2022-12-27T10:29:14.252Z,4.9
2022-12-27T10:31:17.346Z,4.2
2022-12-27T10:33:20.349Z,4.1
2022-12-27T10:35:26.594Z,4.2
2022-12-27T10:37:29.680Z,6.6
2022-12-27T10:39:32.736Z,5.2
2022-12-27T10:41:35.784Z,6.1
2022-12-27T10:43:38.827Z,6.9
2022-12-27T10:45:41.937Z,6.3
2022-12-27T10:47:44.967Z,7.6
2022-12-27T10:49:51.255Z,6.2
2022-12-27T10:51:54.311Z,5.9
2022-12-27T10:53:57.338Z,6.8
2022-12-27T10:56:00.428Z,8
2022-12-27T10:58:03.477Z,7.7
2022-12-27T11:00:06.534Z,6.4
2022-12-27T11:02:09.688Z,7
2022-12-27T11:04:20.093Z,6.1
2022-12-27T11:06:18.942Z,7.8
2022-12-27T11:08:22.006Z,7.3
2022-12-27T11:10:25.064Z,7.3
2022-12-27T11:12:28.137Z,7.3
2022-12-27T11:14:31.174Z,7.6
2022-12-27T11:16:34.385Z,6.3
2022-12-27T11:18:40.539Z,6.4
2022-12-27T11:20:43.645Z,5.2
2022-12-27T11:22:46.674Z,6.1
2022-12-27T11:29:22.714Z,6.7
2022-12-27T11:37:38.243Z,5.8
2022-12-27T11:39:41.311Z,5.1
2022-12-27T11:41:44.368Z,7.2
2022-12-27T11:43:47.474Z,4.5
2022-12-27T11:45:53.793Z,6
2022-12-27T11:47:56.885Z,4.2
2022-12-27T11:49:59.960Z,5.5
2022-12-27T11:52:03.099Z,5.7
2022-12-27T11:54:06.199Z,3.6
2022-12-27T11:56:09.285Z,4.5
2022-12-27T11:58:12.404Z,4.8
2022-12-27T12:00:18.696Z,4
2022-12-27T12:02:21.940Z,3.5
2022-12-27T12:04:24.927Z,4.5
2022-12-27T12:06:34.140Z,3.7
2022-12-27T12:08:31.148Z,3.7
2022-12-27T12:10:34.270Z,3.7
2022-12-27T12:12:37.373Z,2.4
2022-12-27T12:14:43.717Z,3.7
2022-12-27T12:16:46.845Z,3.3
2022-12-27T12:18:49.949Z,2.1
2022-12-27T12:19:53.085Z,2.3
2022-12-27T12:21:56.192Z,1.6
2022-12-27T12:23:59.321Z,1.7
2022-12-27T12:26:02.445Z,2.6
2022-12-27T12:28:29.935Z,2.8
2022-12-27T12:30:11.891Z,2.5
2022-12-27T12:32:14.978Z,2
2022-12-27T12:34:18.100Z,2.9
2022-12-27T12:36:21.209Z,1.2
2022-12-27T12:38:24.314Z,2
2022-12-27T12:40:27.425Z,1.3
2022-12-27T12:42:33.767Z,2.2
2022-12-27T12:44:41.496Z,2.6
2022-12-27T12:46:39.964Z,0.9
2022-12-27T12:48:43.092Z,2.5
2022-12-27T12:50:46.192Z,3.3
2022-12-27T12:52:49.314Z,1.6
2022-12-27T12:54:52.398Z,1.8
2022-12-27T12:59:01.811Z,2.8
2022-12-27T13:01:05.019Z,1.5
2022-12-27T13:05:11.128Z,1.3
2022-12-27T13:09:17.342Z,0.8
2022-12-27T13:11:23.659Z,0.9
2022-12-27T13:13:26.778Z,1.3
2022-12-27T13:15:29.911Z,1.5
2022-12-27T13:16:33.048Z,3.7
2022-12-27T13:18:36.128Z,2.1
2022-12-27T13:20:39.258Z,1.5
2022-12-27T13:22:42.346Z,2
2022-12-27T13:26:51.769Z,1.7
2022-12-27T13:28:54.899Z,2.2
2022-12-27T13:30:58.062Z,1.2
2022-12-27T13:33:01.113Z,1.8
2022-12-27T13:39:15.126Z,2.9
2022-12-27T13:43:21.317Z,1.7
2022-12-27T13:47:27.535Z,1.4
2022-12-27T13:49:30.643Z,2.3
2022-12-27T13:51:33.741Z,1.5
2022-12-27T13:53:40.036Z,2.4
2022-12-27T13:55:43.139Z,1.6
2022-12-27T13:57:46.273Z,1.8
2022-12-27T14:01:52.551Z,1.5
2022-12-27T14:03:55.546Z,3.6
2022-12-27T14:05:58.668Z,1.2
2022-12-27T14:08:04.959Z,1.4
2022-12-27T14:12:11.196Z,0.9
2022-12-27T14:13:14.315Z,1.2
2022-12-27T14:15:17.387Z,1
2022-12-27T14:19:23.575Z,1.3
2022-12-27T14:21:29.879Z,1.7
2022-12-27T14:23:32.955Z,1
2022-12-27T14:25:36.104Z,1.5
2022-12-27T14:29:42.263Z,1
2022-12-27T14:31:45.345Z,0.8
2022-12-27T14:33:48.451Z,1.5
2022-12-27T14:35:54.751Z,1.2
2022-12-27T14:37:57.831Z,1.3
2022-12-27T14:40:00.924Z,1.7
2022-12-27T14:42:04.023Z,1.4
2022-12-27T14:44:07.104Z,2
2022-12-27T14:46:10.221Z,2.5
2022-12-27T14:48:13.301Z,2.1
2022-12-27T14:50:19.554Z,2
2022-12-27T14:52:22.634Z,1.6
2022-12-27T14:54:25.786Z,0.8
2022-12-27T14:58:32.868Z,1.4
2022-12-27T15:00:35.952Z,0.8
2022-12-27T15:02:39.160Z,1.6
2022-12-27T15:04:45.333Z,2.1
2022-12-27T15:06:48.469Z,1.9
2022-12-27T15:08:51.532Z,2.5
2022-12-27T15:11:21.331Z,2.9
2022-12-27T15:13:24.439Z,1.1
2022-12-27T15:15:27.657Z,1
2022-12-27T15:17:33.813Z,1.9
2022-12-27T15:19:36.889Z,1.1
2022-12-27T15:21:41.727Z,1.5
2022-12-27T15:23:43.089Z,1.5
2022-12-27T15:25:46.179Z,1.4
2022-12-27T15:27:49.264Z,1.6
2022-12-27T15:29:52.362Z,1.3
2022-12-27T15:31:58.616Z,1.4
2022-12-27T15:34:01.723Z,1.4
2022-12-27T15:36:04.789Z,1.7
2022-12-27T15:38:07.889Z,2.1
2022-12-27T15:40:10.990Z,2.4
2022-12-27T15:42:14.062Z,2.2
2022-12-27T15:44:17.156Z,1.9
2022-12-27T15:46:23.553Z,2.9
2022-12-27T15:48:26.492Z,2.4
2022-12-27T15:50:29.614Z,1.3
2022-12-27T15:52:32.659Z,1.4
2022-12-27T15:54:35.744Z,1.3
2022-12-27T15:56:38.822Z,2.7
2022-12-27T15:58:41.887Z,1.8
2022-12-27T16:02:51.472Z,3.1
2022-12-27T16:04:54.360Z,1
2022-12-27T16:05:57.502Z,6.5
2022-12-27T16:08:00.584Z,2.9
2022-12-27T16:10:03.704Z,1.3
2022-12-27T16:12:06.775Z,1.6
2022-12-27T16:14:13.051Z,1.6
2022-12-27T16:16:16.167Z,2
2022-12-27T16:18:19.221Z,0.9
2022-12-27T16:20:22.298Z,0.7
2022-12-27T16:22:25.388Z,2.6
2022-12-27T16:24:28.454Z,2
2022-12-27T16:26:31.549Z,2.8
2022-12-27T16:30:40.974Z,2.8
2022-12-27T16:32:44.039Z,1.8
2022-12-27T16:34:47.179Z,2.3
2022-12-27T16:36:50.236Z,1.3
2022-12-27T16:38:53.333Z,1.4
2022-12-27T16:40:56.436Z,2
2022-12-27T16:43:02.700Z,1.9
2022-12-27T16:45:05.778Z,1.4
2022-12-27T16:47:08.955Z,0.9
2022-12-27T16:49:11.982Z,0.8
2022-12-27T16:51:15.054Z,1
2022-12-27T16:53:18.143Z,3.3
2022-12-27T16:55:21.243Z,1.3
2022-12-27T16:57:27.585Z,0.7
2022-12-27T16:59:30.654Z,1.5
2022-12-27T17:01:33.846Z,2.4
2022-12-27T17:06:43.097Z,0.9
2022-12-27T17:08:46.180Z,1.6
2022-12-27T17:10:52.494Z,2
2022-12-27T17:12:55.587Z,1.3
2022-12-27T17:17:01.793Z,2
2022-12-27T17:19:04.869Z,1.5
2022-12-27T17:21:07.981Z,0.8
2022-12-27T17:25:17.345Z,1.2
2022-12-27T17:29:29.530Z,1.9
2022-12-27T17:31:26.610Z,1.2
2022-12-27T17:33:29.670Z,0.8
2022-12-27T17:35:32.788Z,1.6
2022-12-27T17:37:35.891Z,2.5
2022-12-27T17:41:45.236Z,1.4
2022-12-27T17:43:48.372Z,1.1
2022-12-27T17:45:51.546Z,1.6
2022-12-27T17:47:54.508Z,1.7
2022-12-27T17:52:00.679Z,1.4
2022-12-27T17:54:06.963Z,1.5
2022-12-27T17:56:10.075Z,1.8
2022-12-27T17:58:13.143Z,1.2
2022-12-27T17:59:16.284Z,1.3
2022-12-27T18:01:19.493Z,1.7
2022-12-27T18:03:22.468Z,0.4
2022-12-27T18:05:27.432Z,1.1
2022-12-27T18:09:34.969Z,2.4
2022-12-27T18:11:38.017Z,0.4
2022-12-27T18:13:41.148Z,1.8
2022-12-27T18:15:44.206Z,1.1
2022-12-27T18:17:47.285Z,1.6
2022-12-27T18:19:50.382Z,1.2
2022-12-27T18:21:56.670Z,1
2022-12-27T18:23:59.744Z,1.6
2022-12-27T18:26:02.826Z,1.3
2022-12-27T18:28:05.889Z,0.4
2022-12-27T18:30:09.002Z,1.4
2022-12-27T18:32:12.132Z,1.6
2022-12-27T18:34:15.196Z,1.4
2022-12-27T18:38:24.583Z,0.7
2022-12-27T18:42:30.777Z,1.1
2022-12-27T18:44:33.838Z,1
2022-12-27T18:46:36.925Z,1.4
2022-12-27T18:52:53.088Z,1.7
2022-12-27T18:59:25.351Z,1
2022-12-27T19:03:40.432Z,1.8
2022-12-27T19:05:37.788Z,1.8
2022-12-27T19:07:40.891Z,1
2022-12-27T19:11:47.030Z,1
2022-12-27T19:13:50.124Z,1.7
2022-12-27T19:22:05.613Z,1
2022-12-27T19:28:14.846Z,0.5
2022-12-27T19:32:25.731Z,0.8
2022-12-27T19:38:35.007Z,0.6
2022-12-27T19:40:38.059Z,2
2022-12-27T19:42:41.162Z,1.6
2022-12-27T19:46:50.516Z,1.5
2022-12-27T19:49:31.667Z,1.3
2022-12-27T19:50:56.655Z,1.4
2022-12-27T19:51:59.790Z,2.1
2022-12-27T19:54:02.878Z,0.7
2022-12-27T19:56:05.944Z,1.9
2022-12-27T19:58:09.014Z,2.7
2022-12-27T20:00:15.319Z,1.2
2022-12-27T20:02:18.589Z,1.7
2022-12-27T20:04:21.483Z,1.4
2022-12-27T20:06:28.194Z,1
2022-12-27T20:08:27.607Z,1.7
2022-12-27T20:14:40.047Z,1.2
2022-12-27T20:16:43.113Z,1
2022-12-27T20:18:46.184Z,3
2022-12-27T20:20:49.259Z,1
2022-12-27T20:22:52.337Z,1.5
2022-12-27T20:24:55.394Z,2
2022-12-27T20:26:58.478Z,0.9
2022-12-27T20:29:04.763Z,1.4
2022-12-27T20:33:10.907Z,5.2
2022-12-27T20:37:22.666Z,0.8
2022-12-27T20:39:20.123Z,1.3
2022-12-27T20:41:23.190Z,2
2022-12-27T20:43:29.475Z,1.5
2022-12-27T20:45:32.584Z,1.9
2022-12-27T20:47:35.594Z,2
2022-12-27T20:48:38.743Z,1.7
2022-12-27T20:50:41.855Z,2.2
2022-12-27T20:52:44.904Z,1.7
2022-12-27T20:54:47.964Z,1.8
2022-12-27T20:56:54.235Z,1.6
2022-12-27T20:58:57.355Z,1.7
2022-12-27T21:01:00.516Z,0.6
2022-12-27T21:03:03.549Z,1.2
2022-12-27T21:05:06.537Z,1.1
2022-12-27T21:07:09.623Z,0.8
2022-12-27T21:09:12.682Z,0.7
2022-12-27T21:11:18.964Z,0.9
2022-12-27T21:13:22.023Z,1.2
2022-12-27T21:15:25.126Z,0.6
2022-12-27T21:17:28.205Z,1.4
2022-12-27T21:19:31.254Z,1
2022-12-27T21:21:34.334Z,0.5
2022-12-27T21:23:37.399Z,1.4
2022-12-27T21:25:43.677Z,0.5
2022-12-27T21:27:46.755Z,0.7
2022-12-27T21:29:49.827Z,0.8
2022-12-27T21:31:52.899Z,0.5
2022-12-27T21:33:55.960Z,1.9
2022-12-27T21:35:59.044Z,0.5
2022-12-27T21:40:08.401Z,3.7
2022-12-27T21:42:11.468Z,2.2
2022-12-27T21:44:14.582Z,1.3
2022-12-27T21:45:17.713Z,1
2022-12-27T21:49:23.829Z,0.6
2022-12-27T21:51:26.905Z,3.1
2022-12-27T21:53:33.191Z,0.9
2022-12-27T21:55:36.277Z,0.6
2022-12-27T21:57:39.331Z,2.1
2022-12-27T21:59:42.419Z,0.8
2022-12-27T22:01:51.793Z,0.8
2022-12-27T22:03:48.748Z,0.8
2022-12-27T22:05:51.669Z,1.3
2022-12-27T22:07:57.964Z,0.6
2022-12-27T22:10:01.041Z,0.9
2022-12-27T22:12:04.115Z,0.7
2022-12-27T22:14:07.211Z,1.7
2022-12-27T22:16:10.325Z,0.4
2022-12-27T22:18:13.322Z,0.5
2022-12-27T22:20:16.427Z,1.3
2022-12-27T22:24:25.770Z,0.7
2022-12-27T22:26:28.847Z,0.3
2022-12-27T22:28:31.937Z,0.9
2022-12-27T22:30:34.999Z,0.5
2022-12-27T22:32:38.120Z,0.8
2022-12-27T22:34:41.172Z,0.9
2022-12-27T22:36:47.441Z,0.4
2022-12-27T22:43:23.419Z,1.1
2022-12-27T22:45:26.479Z,0.5
2022-12-27T22:47:29.653Z,2.1
2022-12-27T22:49:35.875Z,0.8
2022-12-27T22:51:38.941Z,0.2
2022-12-27T22:53:42.016Z,1
2022-12-27T22:55:45.123Z,0.3
2022-12-27T22:57:48.218Z,0.5
2022-12-27T22:59:51.255Z,0.9
2022-12-27T23:01:54.382Z,0.9
2022-12-27T23:04:00.658Z,0.8
2022-12-27T23:06:03.710Z,0.5
2022-12-27T23:08:07.199Z,1
2022-12-27T23:10:09.821Z,0.1
2022-12-27T23:12:12.905Z,0.7
2022-12-27T23:14:16.002Z,0.6
2022-12-27T23:16:19.186Z,0.3
2022-12-27T23:18:25.358Z,0.5
2022-12-27T23:20:28.451Z,1
2022-12-27T23:22:31.508Z,18.5
2022-12-27T23:24:34.591Z,0.7
2022-12-27T23:26:37.663Z,0.5
2022-12-27T23:28:40.738Z,0.8
2022-12-27T23:30:43.791Z,0.4
2022-12-27T23:36:56.273Z,1.2
2022-12-27T23:37:59.412Z,1
2022-12-27T23:42:05.564Z,1.8
2022-12-27T23:44:08.621Z,0.7
2022-12-27T23:46:14.940Z,2.1
2022-12-27T23:48:17.997Z,0.7
2022-12-27T23:50:21.288Z,1.8
2022-12-27T23:52:24.144Z,1
2022-12-27T23:54:27.203Z,1.5
2022-12-27T23:56:30.285Z,1.6
2022-12-27T23:58:33.336Z,1.7
